Time;durP1;ratioP1;P1;durP2;ratioP2;P2;SDS_P1;SDS_P2;PMS_P1;PMS_P2;Temp;Humidity;BMP_temperature;BMP_pressure;BME280_temperature;BME280_humidity;BME280_pressure;Samples;Min_cycle;Max_cycle;Signal;HPM_P1;HPM_P2
2023/04/15 00:00:11;;;;;;;17.73;10.30;;;6.30;99.90;;;;;;5067985;28;20089;-69
2023/04/15 00:02:37;;;;;;;13.85;9.23;;;6.30;99.90;;;;;;5042666;28;20785;-69
2023/04/15 00:05:04;;;;;;;12.95;9.85;;;6.20;99.90;;;;;;5062281;28;20167;-69
2023/04/15 00:07:30;;;;;;;18.35;11.77;;;6.20;99.90;;;;;;5066641;28;20078;-69
2023/04/15 00:09:57;;;;;;;19.70;12.60;;;6.20;99.90;;;;;;5043591;28;20052;-69
2023/04/15 00:12:24;;;;;;;22.15;12.82;;;6.20;99.90;;;;;;5059085;28;20056;-69
2023/04/15 00:14:50;;;;;;;17.58;9.77;;;6.10;99.90;;;;;;5066660;28;20555;-69
2023/04/15 00:17:16;;;;;;;18.42;11.77;;;6.10;99.90;;;;;;5069797;28;20493;-69
2023/04/15 00:19:43;;;;;;;12.98;9.77;;;6.10;99.90;;;;;;5057564;28;20094;-69
2023/04/15 00:22:08;;;;;;;17.30;11.40;;;6.10;99.90;;;;;;5065934;28;20094;-69
2023/04/15 00:24:34;;;;;;;25.10;11.90;;;6.10;99.90;;;;;;5046910;28;20398;-69
2023/04/15 00:26:59;;;;;;;17.67;11.88;;;6.10;99.90;;;;;;5048169;28;20163;-69
2023/04/15 00:29:25;;;;;;;16.52;11.43;;;6.00;99.90;;;;;;5067982;28;20048;-69
2023/04/15 00:31:51;;;;;;;22.55;12.63;;;6.00;99.90;;;;;;5062060;28;20109;-69
2023/04/15 00:34:17;;;;;;;13.88;10.98;;;6.00;99.90;;;;;;5049921;28;20509;-69
2023/04/15 00:36:43;;;;;;;13.77;11.82;;;5.90;99.90;;;;;;5081411;28;20040;-69
2023/04/15 00:39:09;;;;;;;17.25;11.35;;;5.90;99.90;;;;;;5067247;28;20529;-69
2023/04/15 00:41:38;;;;;;;15.52;11.75;;;5.90;99.90;;;;;;5058703;28;20083;-69
2023/04/15 00:44:05;;;;;;;20.55;13.30;;;5.90;99.90;;;;;;5066129;28;20064;-69
2023/04/15 00:46:34;;;;;;;18.27;12.20;;;5.90;99.90;;;;;;5065948;28;20041;-69
2023/04/15 00:49:03;;;;;;;18.42;12.32;;;5.80;99.90;;;;;;5047470;28;20060;-69
2023/04/15 00:51:29;;;;;;;24.27;13.45;;;5.80;99.90;;;;;;5043666;28;20044;-69
2023/04/15 00:53:56;;;;;;;25.60;12.70;;;5.70;99.90;;;;;;5063547;28;20129;-69
2023/04/15 00:56:23;;;;;;;17.98;12.20;;;5.70;99.90;;;;;;5065713;28;20516;-69
2023/04/15 00:58:50;;;;;;;26.25;13.43;;;5.70;99.90;;;;;;5063237;28;20057;-70
2023/04/15 01:01:20;;;;;;;17.60;13.65;;;5.70;99.90;;;;;;5065162;28;20097;-69
2023/04/15 01:03:46;;;;;;;21.35;13.57;;;5.70;99.90;;;;;;5040659;28;20048;-70
2023/04/15 01:06:13;;;;;;;26.08;15.02;;;5.70;99.90;;;;;;5062203;28;20057;-69
2023/04/15 01:08:38;;;;;;;17.88;13.45;;;5.50;99.90;;;;;;5071726;28;20109;-70
2023/04/15 01:11:05;;;;;;;17.20;12.18;;;5.70;99.90;;;;;;5071064;28;20497;-70
2023/04/15 01:13:32;;;;;;;21.85;14.15;;;5.70;99.90;;;;;;5071325;28;20045;-70
2023/04/15 01:15:59;;;;;;;19.42;13.85;;;5.70;99.90;;;;;;5070422;28;20086;-71
2023/04/15 01:18:26;;;;;;;24.88;14.55;;;5.60;99.90;;;;;;5069874;28;20568;-71
2023/04/15 01:20:52;;;;;;;22.90;12.65;;;5.60;99.90;;;;;;5038822;28;20510;-71
2023/04/15 01:23:22;;;;;;;22.15;12.68;;;5.60;99.90;;;;;;5050514;28;20051;-70
2023/04/15 01:25:49;;;;;;;21.13;12.38;;;5.60;99.90;;;;;;5056474;28;20048;-70
2023/04/15 01:28:15;;;;;;;17.17;13.43;;;5.60;99.90;;;;;;5068850;28;20052;-70
2023/04/15 01:30:41;;;;;;;18.83;13.45;;;5.60;99.90;;;;;;5067997;28;20044;-70
2023/04/15 01:33:08;;;;;;;18.30;11.65;;;5.50;99.90;;;;;;5043434;28;20131;-70
2023/04/15 01:35:34;;;;;;;15.75;11.98;;;5.50;99.90;;;;;;5052173;28;20461;-70
2023/04/15 01:38:08;;;;;;;16.73;11.25;;;5.50;99.90;;;;;;5069832;28;20124;-70
2023/04/15 01:40:34;;;;;;;19.42;12.38;;;5.50;99.90;;;;;;5061348;28;20112;-70
2023/04/15 01:43:01;;;;;;;23.30;15.00;;;5.40;99.90;;;;;;5073088;28;20062;-70
2023/04/15 01:45:27;;;;;;;20.80;13.98;;;5.40;99.90;;;;;;5066116;28;20060;-70
2023/04/15 01:47:53;;;;;;;18.25;13.20;;;5.30;99.90;;;;;;5065690;28;20041;-70
2023/04/15 01:50:19;;;;;;;17.02;13.45;;;5.30;99.90;;;;;;5043458;28;20099;-70
2023/04/15 01:52:46;;;;;;;22.83;14.50;;;5.30;99.90;;;;;;5048917;28;20080;-70
2023/04/15 01:55:12;;;;;;;20.00;16.27;;;5.30;99.90;;;;;;5048776;28;20083;-70
2023/04/15 01:57:38;;;;;;;21.60;14.68;;;5.30;99.90;;;;;;5060462;28;20056;-70
2023/04/15 02:00:06;;;;;;;25.70;15.00;;;5.30;99.90;;;;;;5064770;28;20053;-70
2023/04/15 02:02:33;;;;;;;19.25;14.68;;;5.30;99.90;;;;;;5069205;28;20103;-70
2023/04/15 02:04:58;;;;;;;21.17;15.10;;;5.30;99.90;;;;;;5063572;28;20036;-70
2023/04/15 02:07:27;;;;;;;20.67;15.18;;;5.30;99.90;;;;;;5051107;28;20554;-69
2023/04/15 02:09:53;;;;;;;20.75;14.13;;;5.20;99.90;;;;;;5058643;28;20054;-69
2023/04/15 02:12:19;;;;;;;15.77;12.77;;;5.20;99.90;;;;;;5067687;28;20049;-69
2023/04/15 02:14:44;;;;;;;21.98;13.50;;;5.20;99.90;;;;;;5060648;28;20042;-70
2023/04/15 02:17:10;;;;;;;17.92;13.45;;;5.20;99.90;;;;;;5048625;28;20127;-69
2023/04/15 02:19:36;;;;;;;20.80;13.77;;;5.10;99.90;;;;;;5061317;28;20043;-69
2023/04/15 02:22:02;;;;;;;23.58;15.00;;;5.10;99.90;;;;;;5049921;28;20049;-69
2023/04/15 02:24:30;;;;;;;25.45;16.00;;;5.10;99.90;;;;;;5048662;28;20072;-69
2023/04/15 02:26:56;;;;;;;20.43;14.80;;;5.10;99.90;;;;;;5051985;28;20052;-69
2023/04/15 02:29:22;;;;;;;27.10;13.77;;;5.10;99.90;;;;;;5060968;28;20052;-70
2023/04/15 02:31:49;;;;;;;22.70;15.00;;;5.00;99.90;;;;;;5056384;28;20040;-70
2023/04/15 02:34:14;;;;;;;18.30;14.27;;;5.00;99.90;;;;;;5070173;28;20045;-69
2023/04/15 02:36:40;;;;;;;21.60;15.27;;;5.00;99.90;;;;;;5060970;28;20041;-70
2023/04/15 02:39:06;;;;;;;20.23;15.13;;;5.00;99.90;;;;;;5068768;28;20048;-69
2023/04/15 02:41:32;;;;;;;24.23;16.27;;;5.00;99.90;;;;;;5054696;28;20071;-69
2023/04/15 02:43:57;;;;;;;21.42;15.05;;;5.00;99.90;;;;;;5062309;28;20195;-69
2023/04/15 02:46:23;;;;;;;23.30;15.68;;;5.00;99.90;;;;;;5065988;28;20055;-69
2023/04/15 02:48:49;;;;;;;21.77;15.43;;;5.00;99.90;;;;;;5061916;28;20048;-69
2023/04/15 02:51:18;;;;;;;21.80;15.98;;;5.00;99.90;;;;;;5062690;28;20115;-69
2023/04/15 02:53:45;;;;;;;21.52;15.70;;;4.90;99.90;;;;;;5059594;28;20052;-70
2023/04/15 02:56:11;;;;;;;19.98;15.27;;;4.90;99.90;;;;;;5050244;28;20052;-69
2023/04/15 02:58:38;;;;;;;25.65;16.70;;;4.90;99.90;;;;;;5068342;28;20040;-70
2023/04/15 03:01:03;;;;;;;22.73;15.50;;;4.90;99.90;;;;;;5050381;28;20097;-70
2023/04/15 03:03:29;;;;;;;21.48;15.68;;;4.90;99.90;;;;;;5047780;28;20048;-70
2023/04/15 03:05:56;;;;;;;19.30;16.33;;;4.90;99.90;;;;;;5066494;28;20044;-70
2023/04/15 03:08:22;;;;;;;19.90;14.50;;;4.90;99.90;;;;;;5080256;28;20089;-70
2023/04/15 03:10:48;;;;;;;24.48;16.50;;;4.90;99.90;;;;;;5068465;28;20048;-70
2023/04/15 03:13:14;;;;;;;19.02;15.32;;;4.90;99.90;;;;;;5054291;28;20409;-70
2023/04/15 03:15:40;;;;;;;22.48;16.20;;;4.90;99.90;;;;;;5049400;28;20090;-69
2023/04/15 03:18:06;;;;;;;23.85;17.27;;;4.80;99.90;;;;;;5067114;28;20394;-70
2023/04/15 03:20:32;;;;;;;21.83;16.27;;;4.70;99.90;;;;;;5045642;28;20048;-69
2023/04/15 03:22:57;;;;;;;26.98;18.30;;;4.80;99.90;;;;;;5066064;28;20052;-69
2023/04/15 03:25:23;;;;;;;22.45;16.17;;;4.70;99.90;;;;;;5079972;28;20645;-70
2023/04/15 03:27:48;;;;;;;23.10;16.30;;;4.70;99.90;;;;;;5050733;28;20056;-70
2023/04/15 03:30:14;;;;;;;24.60;17.15;;;4.70;99.90;;;;;;5067030;28;20056;-69
2023/04/15 03:32:40;;;;;;;25.63;16.38;;;4.70;99.90;;;;;;5049880;28;20409;-69
2023/04/15 03:35:06;;;;;;;18.98;16.50;;;4.70;99.90;;;;;;5063640;28;20044;-70
2023/04/15 03:37:31;;;;;;;25.40;16.42;;;4.60;99.90;;;;;;5066130;28;20037;-69
2023/04/15 03:39:57;;;;;;;19.35;15.35;;;4.70;99.90;;;;;;5046073;28;20813;-69
2023/04/15 03:42:23;;;;;;;19.90;15.85;;;4.70;99.90;;;;;;5074145;28;20037;-69
2023/04/15 03:44:48;;;;;;;24.08;16.70;;;4.60;99.90;;;;;;5051282;28;20059;-69
2023/04/15 03:47:14;;;;;;;25.38;18.23;;;4.60;99.90;;;;;;5087388;28;20126;-69
2023/04/15 03:49:41;;;;;;;22.00;17.63;;;4.60;99.90;;;;;;5069712;28;20090;-70
2023/04/15 03:52:06;;;;;;;28.27;19.27;;;4.60;99.90;;;;;;5069325;28;20048;-69
2023/04/15 03:54:32;;;;;;;24.42;17.23;;;4.50;99.90;;;;;;5067340;28;20453;-69
2023/04/15 03:56:57;;;;;;;22.20;17.63;;;4.50;99.90;;;;;;5047340;28;20036;-69
2023/04/15 03:59:23;;;;;;;24.35;17.42;;;4.50;99.90;;;;;;5086166;28;20032;-69
2023/04/15 04:01:49;;;;;;;26.52;18.48;;;4.50;99.90;;;;;;5087245;28;20420;-69
2023/04/15 04:04:15;;;;;;;26.42;16.80;;;4.50;99.90;;;;;;5087060;28;20087;-70
2023/04/15 04:06:41;;;;;;;23.73;17.23;;;4.50;99.90;;;;;;5087221;28;20082;-69
2023/04/15 04:09:06;;;;;;;22.73;16.60;;;4.40;99.90;;;;;;5087505;28;20492;-69
2023/04/15 04:11:33;;;;;;;21.00;16.65;;;4.40;99.90;;;;;;5067132;28;20579;-69
2023/04/15 04:13:58;;;;;;;19.02;15.27;;;4.40;99.90;;;;;;5067597;28;20123;-68
2023/04/15 04:16:24;;;;;;;23.10;15.73;;;4.30;99.90;;;;;;5076672;28;20558;-69
2023/04/15 04:18:50;;;;;;;20.23;15.15;;;4.30;99.90;;;;;;5078028;28;20519;-68
2023/04/15 04:21:16;;;;;;;23.77;16.40;;;4.30;99.90;;;;;;5086669;28;20689;-69
2023/04/15 04:23:42;;;;;;;20.30;15.10;;;4.20;99.90;;;;;;5068760;28;20052;-69
2023/04/15 04:26:07;;;;;;;19.98;15.93;;;4.20;99.90;;;;;;5070870;28;20044;-69
2023/04/15 04:28:34;;;;;;;22.52;16.40;;;4.10;99.90;;;;;;5083267;28;20458;-68
2023/04/15 04:31:00;;;;;;;20.63;15.77;;;4.10;99.90;;;;;;5085065;28;20052;-69
2023/04/15 04:33:25;;;;;;;25.35;16.98;;;4.10;99.90;;;;;;5064895;28;20071;-69
2023/04/15 04:35:51;;;;;;;23.75;16.83;;;4.10;99.90;;;;;;5063761;28;20520;-69
2023/04/15 04:38:17;;;;;;;24.30;16.98;;;4.10;99.90;;;;;;5099546;28;20123;-69
2023/04/15 04:40:43;;;;;;;24.45;18.08;;;4.10;99.90;;;;;;5081905;28;20040;-69
2023/04/15 04:43:09;;;;;;;30.75;20.10;;;4.00;99.90;;;;;;5097420;28;20048;-69
2023/04/15 04:45:36;;;;;;;28.10;21.80;;;4.00;99.90;;;;;;5085530;28;20116;-69
2023/04/15 04:48:05;;;;;;;28.48;21.02;;;4.00;99.90;;;;;;5085086;28;20051;-69
2023/04/15 04:50:31;;;;;;;34.33;22.90;;;4.00;99.90;;;;;;5089895;28;20047;-69
2023/04/15 04:52:57;;;;;;;31.30;21.80;;;4.00;99.90;;;;;;5084762;28;20767;-69
2023/04/15 04:55:22;;;;;;;28.50;22.33;;;3.90;99.90;;;;;;5086207;28;20048;-69
2023/04/15 04:57:48;;;;;;;24.50;19.58;;;4.00;99.90;;;;;;5080352;28;20127;-69
2023/04/15 05:00:14;;;;;;;34.22;22.27;;;4.00;99.90;;;;;;5064091;28;20239;-70
2023/04/15 05:02:42;;;;;;;25.75;18.58;;;4.00;99.90;;;;;;5068111;28;20052;-70
2023/04/15 05:05:09;;;;;;;29.15;19.88;;;4.00;99.90;;;;;;5102969;28;20162;-69
2023/04/15 05:07:34;;;;;;;29.60;20.23;;;4.00;99.90;;;;;;5068557;28;20043;-70
2023/04/15 05:10:00;;;;;;;31.42;23.40;;;4.00;99.90;;;;;;5080540;28;20450;-70
2023/04/15 05:12:28;;;;;;;31.77;22.08;;;4.00;99.90;;;;;;5064934;28;20094;-69
2023/04/15 05:14:53;;;;;;;32.03;22.93;;;4.00;99.90;;;;;;5082673;28;20094;-70
2023/04/15 05:17:20;;;;;;;33.30;22.70;;;4.10;99.90;;;;;;5068292;28;20305;-70
2023/04/15 05:19:46;;;;;;;31.88;23.60;;;4.10;99.90;;;;;;5083295;28;20509;-69
2023/04/15 05:22:12;;;;;;;34.92;24.42;;;4.20;99.90;;;;;;5086197;28;20040;-69
2023/04/15 05:24:37;;;;;;;40.08;26.48;;;4.20;99.90;;;;;;5059029;28;20143;-69
2023/04/15 05:27:03;;;;;;;39.13;27.40;;;4.30;99.90;;;;;;5084511;28;20078;-70
2023/04/15 05:29:29;;;;;;;41.22;25.50;;;4.40;99.90;;;;;;5052889;28;20044;-70
2023/04/15 05:31:55;;;;;;;40.92;26.10;;;4.50;99.90;;;;;;5092069;28;20509;-69
2023/04/15 05:34:21;;;;;;;35.08;25.48;;;4.70;99.90;;;;;;5086395;28;20090;-70
2023/04/15 05:36:47;;;;;;;40.92;26.92;;;4.80;99.90;;;;;;5066164;28;20039;-69
2023/04/15 05:39:14;;;;;;;37.15;26.85;;;4.80;99.90;;;;;;5067556;28;20709;-69
2023/04/15 05:41:40;;;;;;;40.55;26.70;;;4.90;99.90;;;;;;5075418;28;20098;-69
2023/04/15 05:44:05;;;;;;;39.13;26.45;;;5.00;99.90;;;;;;5062553;28;20040;-69
2023/04/15 05:46:31;;;;;;;36.10;26.80;;;5.00;99.90;;;;;;5064638;28;20063;-69
2023/04/15 05:48:56;;;;;;;40.40;26.23;;;5.00;99.90;;;;;;5083537;28;20140;-69
2023/04/15 05:51:22;;;;;;;35.38;25.13;;;5.10;99.90;;;;;;5085578;28;20040;-69
2023/04/15 05:53:47;;;;;;;39.92;28.45;;;5.10;99.90;;;;;;5087743;28;20059;-69
2023/04/15 05:56:13;;;;;;;40.08;26.50;;;5.10;99.90;;;;;;5071192;28;20644;-69
2023/04/15 05:58:39;;;;;;;37.75;26.38;;;5.10;99.90;;;;;;5081334;28;20045;-69
2023/04/15 06:01:05;;;;;;;40.63;28.17;;;5.10;99.90;;;;;;5085299;28;20420;-69
2023/04/15 06:03:32;;;;;;;37.10;26.15;;;5.20;99.90;;;;;;5089088;28;20040;-70
2023/04/15 06:05:58;;;;;;;41.33;28.42;;;5.20;99.90;;;;;;5086311;28;20075;-70
2023/04/15 06:08:23;;;;;;;41.25;27.40;;;5.20;99.90;;;;;;5088470;28;20079;-70
2023/04/15 06:10:49;;;;;;;43.38;28.50;;;5.20;99.90;;;;;;5067705;28;20070;-70
2023/04/15 06:13:15;;;;;;;44.00;29.77;;;5.20;99.90;;;;;;5086040;28;20048;-70
2023/04/15 06:15:41;;;;;;;44.83;31.70;;;5.20;99.90;;;;;;5088405;28;20083;-69
2023/04/15 06:18:07;;;;;;;42.65;28.95;;;5.20;99.90;;;;;;5085155;28;20062;-71
2023/04/15 06:20:33;;;;;;;45.33;29.27;;;5.20;99.90;;;;;;5088065;28;20071;-69
2023/04/15 06:22:59;;;;;;;42.65;27.75;;;5.30;99.90;;;;;;5074417;28;20040;-71
2023/04/15 06:25:25;;;;;;;40.25;26.75;;;5.40;99.90;;;;;;5068635;28;20043;-70
2023/04/15 06:27:50;;;;;;;42.65;29.42;;;5.50;99.90;;;;;;5088616;28;20040;-70
2023/04/15 06:30:16;;;;;;;39.33;28.88;;;5.50;99.90;;;;;;5067093;28;20615;-69
2023/04/15 06:32:41;;;;;;;46.05;30.90;;;5.60;99.90;;;;;;5083289;28;20049;-70
2023/04/15 06:35:08;;;;;;;45.83;28.90;;;5.70;99.90;;;;;;5089842;28;20089;-70
2023/04/15 06:37:33;;;;;;;42.15;30.10;;;5.70;99.90;;;;;;5087263;28;20039;-70
2023/04/15 06:39:59;;;;;;;44.78;28.58;;;5.80;99.90;;;;;;5073742;28;20165;-70
2023/04/15 06:42:25;;;;;;;36.80;26.17;;;5.90;99.90;;;;;;5070774;28;20412;-70
2023/04/15 06:44:51;;;;;;;43.25;29.38;;;5.90;99.90;;;;;;5088251;28;20060;-70
2023/04/15 06:47:16;;;;;;;42.30;28.90;;;6.10;99.90;;;;;;5065245;28;20045;-70
2023/04/15 06:49:43;;;;;;;37.67;26.38;;;6.10;99.90;;;;;;5074606;28;20109;-69
2023/04/15 06:52:10;;;;;;;43.17;29.20;;;6.20;99.90;;;;;;5087597;28;20487;-70
2023/04/15 06:54:35;;;;;;;38.45;27.27;;;6.30;99.90;;;;;;5070541;28;20440;-70
2023/04/15 06:57:01;;;;;;;37.97;27.10;;;6.40;99.90;;;;;;5088271;28;20048;-70
2023/04/15 06:59:27;;;;;;;38.95;26.35;;;6.40;99.90;;;;;;5087521;28;20036;-70
2023/04/15 07:01:52;;;;;;;36.60;26.65;;;6.50;99.90;;;;;;5071504;28;20048;-70
2023/04/15 07:04:19;;;;;;;37.00;26.98;;;6.60;99.90;;;;;;5067443;28;20079;-71
2023/04/15 07:06:44;;;;;;;40.15;27.15;;;6.70;99.90;;;;;;5100028;28;20165;-70
2023/04/15 07:09:10;;;;;;;39.25;24.73;;;6.80;99.90;;;;;;5089204;28;20641;-70
2023/04/15 07:11:36;;;;;;;34.78;23.75;;;6.90;99.90;;;;;;5069355;28;20469;-70
2023/04/15 07:14:02;;;;;;;38.47;23.95;;;7.00;99.90;;;;;;5088110;28;20078;-70
2023/04/15 07:16:28;;;;;;;34.78;23.73;;;7.00;99.90;;;;;;5087726;28;20040;-70
2023/04/15 07:18:54;;;;;;;36.88;25.00;;;7.10;99.90;;;;;;5087509;28;20044;-70
2023/04/15 07:21:20;;;;;;;34.65;24.15;;;7.20;99.90;;;;;;5089947;28;20060;-70
2023/04/15 07:23:46;;;;;;;35.03;23.85;;;7.30;99.90;;;;;;5088181;28;20039;-70
2023/04/15 07:26:11;;;;;;;32.10;20.17;;;7.30;99.90;;;;;;5063994;28;20177;-70
2023/04/15 07:28:37;;;;;;;25.40;18.50;;;7.40;99.90;;;;;;5075682;28;20059;-70
2023/04/15 07:31:03;;;;;;;40.35;23.13;;;7.50;99.90;;;;;;5048721;28;20076;-70
2023/04/15 07:33:28;;;;;;;32.25;20.80;;;7.60;99.90;;;;;;5085061;28;20463;-71
2023/04/15 07:35:54;;;;;;;31.67;22.25;;;7.70;99.90;;;;;;5082598;28;20144;-70
2023/04/15 07:38:21;;;;;;;29.80;21.55;;;7.80;99.90;;;;;;5083628;28;20116;-70
2023/04/15 07:40:47;;;;;;;36.75;22.77;;;7.90;99.90;;;;;;5070796;28;20591;-70
2023/04/15 07:43:13;;;;;;;30.75;22.30;;;8.00;99.90;;;;;;5076504;28;20099;-70
2023/04/15 07:45:38;;;;;;;28.55;22.27;;;8.10;99.90;;;;;;5072244;28;20080;-70
2023/04/15 07:48:05;;;;;;;28.95;22.25;;;8.10;99.90;;;;;;5080953;28;20083;-70
2023/04/15 07:50:31;;;;;;;39.85;24.42;;;8.20;99.90;;;;;;5092796;28;20048;-70
2023/04/15 07:52:57;;;;;;;38.38;23.23;;;8.30;99.90;;;;;;5057370;28;20054;-70
2023/04/15 07:55:22;;;;;;;35.75;20.98;;;8.30;99.90;;;;;;5082099;28;20043;-71
2023/04/15 07:57:49;;;;;;;29.00;20.98;;;8.40;99.90;;;;;;5054950;28;20729;-71
2023/04/15 08:00:15;;;;;;;27.80;19.73;;;8.40;99.90;;;;;;5070515;28;20520;-70
2023/04/15 08:02:42;;;;;;;26.05;18.20;;;8.40;99.90;;;;;;5063937;28;20093;-70
2023/04/15 08:05:09;;;;;;;22.50;17.67;;;8.50;99.90;;;;;;5069182;28;20055;-70
2023/04/15 08:07:37;;;;;;;26.73;18.80;;;8.50;99.90;;;;;;5066509;28;20056;-71
2023/04/15 08:10:03;;;;;;;23.08;17.52;;;8.60;99.90;;;;;;5082380;28;20043;-70
2023/04/15 08:12:29;;;;;;;19.00;13.40;;;8.70;99.90;;;;;;5081331;28;20048;-70
2023/04/15 08:14:56;;;;;;;15.70;12.52;;;8.70;99.90;;;;;;5087529;28;20055;-70
2023/04/15 08:17:22;;;;;;;16.85;10.68;;;8.70;99.90;;;;;;5085615;28;20047;-70
2023/04/15 08:19:48;;;;;;;14.50;11.02;;;8.80;99.90;;;;;;5086059;28;20097;-70
2023/04/15 08:22:14;;;;;;;22.27;11.13;;;8.80;99.90;;;;;;5068180;28;20047;-70
2023/04/15 08:24:40;;;;;;;17.00;10.80;;;8.80;99.90;;;;;;5074921;28;20052;-70
2023/04/15 08:27:06;;;;;;;15.38;11.57;;;8.80;99.90;;;;;;5087264;28;20054;-70
2023/04/15 08:29:32;;;;;;;22.40;10.57;;;8.80;99.90;;;;;;5066608;28;20052;-71
2023/04/15 08:32:01;;;;;;;15.27;11.30;;;8.80;99.90;;;;;;5068778;28;20059;-70
2023/04/15 08:34:27;;;;;;;12.68;9.80;;;8.80;99.90;;;;;;5068862;28;20044;-70
2023/04/15 08:36:52;;;;;;;18.38;10.15;;;8.70;99.90;;;;;;5102509;28;20565;-71
2023/04/15 08:39:18;;;;;;;15.82;11.13;;;8.70;99.90;;;;;;5086583;28;20089;-70
2023/04/15 08:42:15;;;;;;;21.52;10.07;;;8.60;99.90;;;;;;5066498;28;20052;-71
2023/04/15 08:44:42;;;;;;;12.23;8.05;;;8.70;99.90;;;;;;5079703;28;20150;-70
2023/04/15 08:47:13;;;;;;;11.40;9.57;;;8.60;99.90;;;;;;5082748;28;20070;-70
2023/04/15 08:49:42;;;;;;;11.82;7.60;;;8.70;99.90;;;;;;5099992;28;20054;-70
2023/04/15 08:52:08;;;;;;;8.85;7.60;;;8.70;99.90;;;;;;5084611;28;20116;-71
2023/04/15 08:54:35;;;;;;;13.30;8.27;;;8.70;99.90;;;;;;5066487;28;20052;-71
2023/04/15 08:57:01;;;;;;;15.48;7.43;;;8.80;99.90;;;;;;5080576;28;20129;-70
2023/04/15 08:59:29;;;;;;;9.10;7.03;;;8.90;99.90;;;;;;5085513;28;20119;-70
2023/04/15 09:01:57;;;;;;;15.20;8.80;;;8.90;99.90;;;;;;5071667;28;20880;-70
2023/04/15 09:04:22;;;;;;;10.97;6.80;;;8.90;99.90;;;;;;5063038;28;20052;-71
2023/04/15 09:06:48;;;;;;;10.63;8.02;;;8.90;99.90;;;;;;5080140;28;20054;-70
2023/04/15 09:09:14;;;;;;;9.70;7.28;;;8.90;99.90;;;;;;5083265;28;20093;-70
2023/04/15 09:11:40;;;;;;;11.80;7.40;;;9.10;99.90;;;;;;5085545;28;20062;-71
2023/04/15 09:14:06;;;;;;;9.25;6.97;;;9.10;99.90;;;;;;5067868;28;20055;-71
2023/04/15 09:16:55;;;;;;;9.88;6.15;;;9.10;99.90;;;;;;5066773;28;20045;-70
2023/04/15 09:19:22;;;;;;;10.55;6.60;;;9.20;99.90;;;;;;5080184;28;20539;-70
2023/04/15 09:21:50;;;;;;;11.30;6.05;;;9.20;99.90;;;;;;5078227;28;20119;-70
2023/04/15 09:24:16;;;;;;;18.30;6.10;;;9.10;99.90;;;;;;5051503;28;20067;-70
2023/04/15 09:26:42;;;;;;;8.10;5.47;;;9.10;99.90;;;;;;5080426;28;20063;-70
2023/04/15 09:29:12;;;;;;;8.50;6.57;;;9.10;99.90;;;;;;5060352;28;20048;-70
2023/04/15 09:31:39;;;;;;;11.15;5.80;;;9.10;99.90;;;;;;5102280;28;20166;-70
2023/04/15 09:34:05;;;;;;;7.90;6.75;;;9.10;99.90;;;;;;5090284;28;20044;-71
2023/04/15 09:37:00;;;;;;;7.60;5.53;;;9.20;99.90;;;;;;5081588;28;20048;-70
2023/04/15 09:39:26;;;;;;;6.72;5.57;;;9.30;99.90;;;;;;5072168;28;20059;-71
2023/04/15 09:42:07;;;;;;;10.68;6.63;;;9.30;99.90;;;;;;5087654;28;20551;-70
2023/04/15 09:44:33;;;;;;;6.90;5.57;;;9.40;99.90;;;;;;5105963;27;20063;-71
2023/04/15 09:46:59;;;;;;;8.40;5.55;;;9.40;99.90;;;;;;5071627;28;20056;-70
2023/04/15 09:49:25;;;;;;;8.95;6.28;;;9.40;99.90;;;;;;5096688;28;20072;-70
2023/04/15 09:51:58;;;;;;;10.95;4.80;;;9.40;99.90;;;;;;5070591;28;20075;-70
2023/04/15 09:54:24;;;;;;;6.93;5.22;;;9.50;99.90;;;;;;5085468;28;20046;-70
2023/04/15 09:56:50;;;;;;;7.30;4.82;;;9.50;99.90;;;;;;5072325;28;20039;-70
2023/04/15 09:59:15;;;;;;;5.85;4.30;;;9.50;99.90;;;;;;5089574;28;20040;-71
2023/04/15 10:01:42;;;;;;;9.07;5.90;;;9.50;99.90;;;;;;5083419;28;20102;-70
2023/04/15 10:04:08;;;;;;;6.43;4.65;;;9.50;99.90;;;;;;5084760;28;20544;-70
2023/04/15 10:06:35;;;;;;;8.18;5.20;;;9.60;99.90;;;;;;5053917;28;20048;-70
2023/04/15 10:09:01;;;;;;;5.03;4.63;;;9.60;99.90;;;;;;5049680;28;20124;-71
2023/04/15 10:11:28;;;;;;;8.85;4.78;;;9.60;99.90;;;;;;5066432;28;20132;-70
2023/04/15 10:13:56;;;;;;;8.17;4.97;;;9.60;99.90;;;;;;5088124;28;20435;-70
2023/04/15 10:16:24;;;;;;;7.00;5.60;;;9.60;99.90;;;;;;5085207;28;20048;-70
2023/04/15 10:18:57;;;;;;;7.70;5.18;;;9.60;99.90;;;;;;5086806;28;20389;-70
2023/04/15 10:21:23;;;;;;;6.15;4.55;;;9.60;99.90;;;;;;5089745;28;20048;-71
2023/04/15 10:23:50;;;;;;;6.28;5.68;;;9.60;99.90;;;;;;5087525;28;20389;-70
2023/04/15 10:26:16;;;;;;;8.63;5.45;;;9.60;99.90;;;;;;5100635;28;20047;-70
2023/04/15 10:28:43;;;;;;;7.20;5.07;;;9.60;99.90;;;;;;5080799;28;20050;-70
2023/04/15 10:31:12;;;;;;;9.15;5.32;;;9.60;99.90;;;;;;5069307;28;20412;-70
2023/04/15 10:33:39;;;;;;;7.60;4.95;;;9.60;99.90;;;;;;5102144;28;20047;-70
2023/04/15 10:36:06;;;;;;;6.15;4.38;;;9.60;99.90;;;;;;5087370;28;20517;-70
2023/04/15 10:38:41;;;;;;;6.85;4.03;;;9.60;99.90;;;;;;5066798;28;20584;-70
2023/04/15 10:41:25;;;;;;;6.28;4.88;;;9.60;99.90;;;;;;5064287;28;20046;-70
2023/04/15 10:43:56;;;;;;;5.60;3.75;;;9.70;99.90;;;;;;5072299;28;20060;-71
2023/04/15 10:46:42;;;;;;;5.93;3.92;;;9.60;99.90;;;;;;5084604;28;20056;-71
2023/04/15 10:49:16;;;;;;;6.93;4.13;;;9.60;99.90;;;;;;5083287;28;20075;-70
2023/04/15 10:51:46;;;;;;;7.85;4.90;;;9.60;99.90;;;;;;5060852;28;20125;-71
2023/04/15 10:54:25;;;;;;;6.40;3.72;;;9.60;99.90;;;;;;5086732;28;20777;-71
2023/04/15 10:57:02;;;;;;;4.00;3.55;;;9.70;99.90;;;;;;5088512;28;20058;-71
2023/04/15 10:59:38;;;;;;;7.35;4.75;;;9.70;99.90;;;;;;5104143;28;20549;-71
2023/04/15 11:02:07;;;;;;;8.88;4.70;;;9.80;99.90;;;;;;5084633;28;20109;-71
2023/04/15 11:04:58;;;;;;;7.47;4.03;;;9.90;99.90;;;;;;5089216;28;20055;-72
2023/04/15 11:07:43;;;;;;;5.50;4.32;;;9.90;99.90;;;;;;5087828;28;20052;-71
2023/04/15 11:10:24;;;;;;;5.65;4.15;;;10.00;99.90;;;;;;5069295;28;20135;-71
2023/04/15 11:12:58;;;;;;;4.72;3.50;;;10.10;99.90;;;;;;5044123;28;20068;-71
2023/04/15 11:15:36;;;;;;;10.23;5.10;;;10.10;99.90;;;;;;5088321;28;20145;-71
2023/04/15 11:18:12;;;;;;;8.13;4.38;;;10.10;99.90;;;;;;5055068;28;20048;-71
2023/04/15 11:20:40;;;;;;;3.97;3.40;;;10.20;99.90;;;;;;5083040;28;20044;-71
2023/04/15 11:23:06;;;;;;;4.25;3.85;;;10.30;99.90;;;;;;5087682;28;20076;-73
2023/04/15 11:25:33;;;;;;;7.40;4.63;;;10.40;99.90;;;;;;5088391;28;20051;-71
2023/04/15 11:28:00;;;;;;;6.47;4.60;;;10.40;99.90;;;;;;5082932;28;20049;-71
2023/04/15 11:30:35;;;;;;;10.35;6.90;;;10.40;99.90;;;;;;5081927;28;20108;-71
2023/04/15 11:33:03;;;;;;;6.72;5.65;;;10.30;99.90;;;;;;5102465;28;20080;-71
2023/04/15 11:35:30;;;;;;;8.35;4.28;;;10.30;99.90;;;;;;5101107;28;20590;-71
2023/04/15 11:37:56;;;;;;;4.60;4.20;;;10.20;99.90;;;;;;5090428;28;20044;-71
2023/04/15 11:40:23;;;;;;;8.20;5.53;;;10.20;99.90;;;;;;5099082;28;20052;-71
2023/04/15 11:43:08;;;;;;;7.50;5.97;;;10.20;99.90;;;;;;5087860;28;20048;-71
2023/04/15 11:45:35;;;;;;;8.43;5.20;;;10.20;99.90;;;;;;5072836;28;20055;-70
2023/04/15 11:48:12;;;;;;;7.18;5.47;;;10.10;99.90;;;;;;5087993;28;20675;-71
2023/04/15 11:50:41;;;;;;;7.30;5.20;;;10.20;99.90;;;;;;5090300;27;20134;-71
2023/04/15 11:53:10;;;;;;;7.80;5.28;;;10.30;99.90;;;;;;5066713;28;20070;-71
2023/04/15 11:55:49;;;;;;;5.55;4.57;;;10.30;99.90;;;;;;5065625;28;20063;-71
2023/04/15 11:58:19;;;;;;;13.50;6.57;;;10.40;99.90;;;;;;5057846;28;20052;-71
2023/04/15 12:00:54;;;;;;;10.10;6.75;;;10.40;99.90;;;;;;5060623;28;20053;-71
2023/04/15 12:03:38;;;;;;;12.52;6.40;;;10.30;99.90;;;;;;5062580;28;20047;-72
2023/04/15 12:06:09;;;;;;;12.43;7.68;;;10.20;99.90;;;;;;5081933;28;20044;-72
2023/04/15 12:08:58;;;;;;;12.43;5.95;;;10.10;99.90;;;;;;5061103;28;20060;-71
2023/04/15 12:11:27;;;;;;;13.70;5.82;;;10.10;99.90;;;;;;5083005;28;20055;-72
2023/04/15 12:14:06;;;;;;;8.73;6.13;;;10.00;99.90;;;;;;5079926;28;20056;-71
2023/04/15 12:16:36;;;;;;;9.45;5.28;;;10.00;99.90;;;;;;5063020;28;20599;-71
2023/04/15 12:19:12;;;;;;;8.30;5.43;;;10.00;99.90;;;;;;5082391;28;20090;-71
2023/04/15 12:21:40;;;;;;;15.13;5.47;;;10.00;99.90;;;;;;5063571;28;20051;-71
2023/04/15 12:24:08;;;;;;;14.85;6.32;;;10.10;99.90;;;;;;5066783;28;20078;-71
2023/04/15 12:26:45;;;;;;;13.00;6.22;;;10.00;99.90;;;;;;5084593;28;20135;-71
2023/04/15 12:29:12;;;;;;;8.98;6.22;;;10.00;99.90;;;;;;5075837;28;20485;-71
2023/04/15 12:31:52;;;;;;;6.22;4.43;;;10.00;99.90;;;;;;5086910;28;20051;-71
2023/04/15 12:34:29;;;;;;;11.23;5.60;;;10.00;99.90;;;;;;5070692;28;20094;-71
2023/04/15 12:36:55;;;;;;;9.15;5.50;;;10.00;99.90;;;;;;5052429;28;20122;-72
2023/04/15 12:39:23;;;;;;;11.43;5.57;;;10.00;99.90;;;;;;5085384;28;20040;-71
2023/04/15 12:41:48;;;;;;;12.88;5.65;;;10.00;99.90;;;;;;5073819;28;20048;-71